VOZ938 YBBN-YSSY
Flight info
| Callsign | VOZ938 |
|---|---|
| Flight time | 1h 12m |
| Altitude | 36000 |
| Route | SANEG H91 IGDAM H652 BOREE |
| Aircraft | B738/M-SDE3FGIRWZH/LB1 |
Departure
| Time | 2026-05-05 22:57 |
|---|---|
| Airport | Brisbane International Airport (YBBN) |
Arrival
| Time | 2026-05-06 00:09 |
|---|---|
| Airport | Sydney Kingsford Smith International Airport (YSSY) |
| Time | Latitude | Longitude | Altitude | Speed | Heading |
|---|---|---|---|---|---|
| 2026-05-05 22:26 | -27.38807 | 153.12004 | 17 ft | 0 kts | 278° |
| 2026-05-05 22:46 | -27.38808 | 153.12014 | 18 ft | 4 kts | 277° |
| 2026-05-05 22:47 | -27.38810 | 153.12044 | 19 ft | 4 kts | 274° |
| 2026-05-05 22:47 | -27.38814 | 153.12073 | 20 ft | 4 kts | 297° |
| 2026-05-05 22:47 | -27.38830 | 153.12092 | 20 ft | 4 kts | 333° |
| 2026-05-05 22:47 | -27.38853 | 153.12096 | 18 ft | 4 kts | 25° |
| 2026-05-05 22:48 | -27.38872 | 153.12080 | 18 ft | 2 kts | 43° |
| 2026-05-05 22:48 | -27.38873 | 153.12079 | 18 ft | 0 kts | 43° |
| 2026-05-05 22:50 | -27.38873 | 153.12080 | 18 ft | 1 kts | 43° |
| 2026-05-05 22:50 | -27.38862 | 153.12108 | 18 ft | 8 kts | 86° |
| 2026-05-05 22:50 | -27.38882 | 153.12173 | 18 ft | 9 kts | 117° |
| 2026-05-05 22:51 | -27.38932 | 153.12212 | 17 ft | 10 kts | 174° |
| 2026-05-05 22:51 | -27.39005 | 153.12183 | 18 ft | 14 kts | 206° |
| 2026-05-05 22:51 | -27.39098 | 153.12153 | 18 ft | 13 kts | 165° |
| 2026-05-05 22:51 | -27.39130 | 153.12235 | 17 ft | 13 kts | 60° |
| 2026-05-05 22:52 | -27.39053 | 153.12294 | 17 ft | 15 kts | 26° |
| 2026-05-05 22:52 | -27.38954 | 153.12351 | 17 ft | 18 kts | 27° |
| 2026-05-05 22:52 | -27.38842 | 153.12415 | 18 ft | 18 kts | 27° |
| 2026-05-05 22:52 | -27.38734 | 153.12477 | 20 ft | 17 kts | 27° |
| 2026-05-05 22:53 | -27.38629 | 153.12538 | 18 ft | 17 kts | 27° |
| 2026-05-05 22:53 | -27.38527 | 153.12595 | 18 ft | 16 kts | 26° |
| 2026-05-05 22:53 | -27.38430 | 153.12651 | 18 ft | 15 kts | 27° |
| 2026-05-05 22:53 | -27.38334 | 153.12705 | 18 ft | 16 kts | 27° |
| 2026-05-05 22:54 | -27.38231 | 153.12765 | 18 ft | 18 kts | 27° |
| 2026-05-05 22:54 | -27.38123 | 153.12827 | 18 ft | 17 kts | 27° |
| 2026-05-05 22:54 | -27.38048 | 153.12871 | 17 ft | 8 kts | 34° |
| 2026-05-05 22:54 | -27.38040 | 153.12919 | 18 ft | 6 kts | 114° |
| 2026-05-05 22:55 | -27.38059 | 153.12960 | 19 ft | 3 kts | 118° |
| 2026-05-05 22:55 | -27.38060 | 153.12962 | 19 ft | 0 kts | 118° |
| 2026-05-05 22:56 | -27.38061 | 153.12964 | 19 ft | 2 kts | 118° |
| 2026-05-05 22:56 | -27.38084 | 153.13013 | 21 ft | 12 kts | 117° |
| 2026-05-05 22:56 | -27.38161 | 153.13033 | 21 ft | 15 kts | 206° |
| 2026-05-05 22:56 | -27.38371 | 153.12914 | 22 ft | 64 kts | 207° |
| 2026-05-05 22:57 | -27.38955 | 153.12580 | 19 ft | 123 kts | 207° |
| 2026-05-05 22:57 | -27.39861 | 153.12066 | 131 ft | 158 kts | 207° |
| 2026-05-05 22:57 | -27.40816 | 153.11524 | 829 ft | 152 kts | 206° |
| 2026-05-05 22:57 | -27.41809 | 153.10996 | 1273 ft | 163 kts | 195° |
| 2026-05-05 22:58 | -27.42922 | 153.11047 | 1806 ft | 165 kts | 155° |
| 2026-05-05 22:58 | -27.44005 | 153.11699 | 2042 ft | 191 kts | 152° |
| 2026-05-05 22:58 | -27.45249 | 153.12433 | 2273 ft | 212 kts | 152° |
| 2026-05-05 22:58 | -27.46587 | 153.13204 | 2721 ft | 219 kts | 153° |
| 2026-05-05 22:59 | -27.47946 | 153.13975 | 3335 ft | 220 kts | 154° |
| 2026-05-05 22:59 | -27.49352 | 153.14717 | 3993 ft | 224 kts | 163° |
| 2026-05-05 22:59 | -27.50944 | 153.14718 | 4401 ft | 242 kts | 191° |
| 2026-05-05 22:59 | -27.52637 | 153.14269 | 4754 ft | 260 kts | 192° |
| 2026-05-05 23:00 | -27.56233 | 153.13313 | 6033 ft | 270 kts | 195° |
| 2026-05-05 23:00 | -27.58036 | 153.12619 | 6656 ft | 277 kts | 199° |
| 2026-05-05 23:00 | -27.59883 | 153.11863 | 7281 ft | 283 kts | 199° |
| 2026-05-05 23:01 | -27.61725 | 153.11116 | 7962 ft | 287 kts | 199° |
| 2026-05-05 23:01 | -27.63648 | 153.10416 | 8682 ft | 290 kts | 197° |
| 2026-05-05 23:01 | -27.65604 | 153.09768 | 9367 ft | 296 kts | 197° |
| 2026-05-05 23:01 | -27.67607 | 153.09115 | 10086 ft | 301 kts | 197° |
| 2026-05-05 23:02 | -27.69643 | 153.08448 | 10607 ft | 313 kts | 197° |
| 2026-05-05 23:02 | -27.71811 | 153.07731 | 10772 ft | 336 kts | 198° |
| 2026-05-05 23:02 | -27.74101 | 153.06970 | 10991 ft | 356 kts | 198° |
| 2026-05-05 23:02 | -27.76506 | 153.06169 | 11516 ft | 363 kts | 198° |
| 2026-05-05 23:03 | -27.78937 | 153.05358 | 12283 ft | 363 kts | 198° |
| 2026-05-05 23:03 | -27.81363 | 153.04547 | 13067 ft | 364 kts | 198° |
| 2026-05-05 23:03 | -27.83777 | 153.03640 | 13814 ft | 366 kts | 202° |
| 2026-05-05 23:03 | -27.86162 | 153.02603 | 14474 ft | 369 kts | 204° |
| 2026-05-05 23:04 | -27.88535 | 153.01532 | 15062 ft | 374 kts | 205° |
| 2026-05-05 23:04 | -27.90983 | 153.00428 | 15662 ft | 380 kts | 205° |
| 2026-05-05 23:04 | -27.93456 | 152.99323 | 16281 ft | 385 kts | 205° |
| 2026-05-05 23:04 | -27.95969 | 152.98212 | 16906 ft | 389 kts | 206° |
| 2026-05-05 23:05 | -27.98514 | 152.97093 | 17502 ft | 394 kts | 206° |
| 2026-05-05 23:05 | -28.01099 | 152.95960 | 18087 ft | 399 kts | 206° |
| 2026-05-05 23:05 | -28.03669 | 152.94835 | 18633 ft | 404 kts | 207° |
| 2026-05-05 23:05 | -28.06311 | 152.93678 | 19182 ft | 407 kts | 207° |
| 2026-05-05 23:06 | -28.08955 | 152.92519 | 19765 ft | 408 kts | 207° |
| 2026-05-05 23:06 | -28.11590 | 152.91357 | 20360 ft | 410 kts | 207° |
| 2026-05-05 23:06 | -28.14260 | 152.90169 | 20926 ft | 412 kts | 207° |
| 2026-05-05 23:06 | -28.16944 | 152.88973 | 21481 ft | 415 kts | 207° |
| 2026-05-05 23:07 | -28.19643 | 152.87768 | 22020 ft | 417 kts | 207° |
| 2026-05-05 23:07 | -28.22359 | 152.86555 | 22539 ft | 420 kts | 207° |
| 2026-05-05 23:07 | -28.25098 | 152.85332 | 23069 ft | 422 kts | 207° |
| 2026-05-05 23:07 | -28.27805 | 152.84124 | 23572 ft | 425 kts | 207° |
| 2026-05-05 23:08 | -28.30571 | 152.82889 | 24026 ft | 427 kts | 207° |
| 2026-05-05 23:08 | -28.33346 | 152.81650 | 24460 ft | 430 kts | 208° |
| 2026-05-05 23:08 | -28.36142 | 152.80400 | 24897 ft | 432 kts | 208° |
| 2026-05-05 23:08 | -28.38949 | 152.79146 | 25335 ft | 433 kts | 208° |
| 2026-05-05 23:09 | -28.41768 | 152.77886 | 25763 ft | 434 kts | 208° |
| 2026-05-05 23:09 | -28.44554 | 152.76639 | 26090 ft | 438 kts | 208° |
| 2026-05-05 23:09 | -28.47407 | 152.75359 | 26436 ft | 441 kts | 208° |
| 2026-05-05 23:09 | -28.50278 | 152.74072 | 26807 ft | 443 kts | 208° |
| 2026-05-05 23:10 | -28.53160 | 152.72781 | 27191 ft | 445 kts | 208° |
| 2026-05-05 23:10 | -28.56021 | 152.71498 | 27562 ft | 447 kts | 209° |
| 2026-05-05 23:10 | -28.58920 | 152.70196 | 27919 ft | 449 kts | 209° |
| 2026-05-05 23:10 | -28.61841 | 152.68884 | 28297 ft | 452 kts | 209° |
| 2026-05-05 23:11 | -28.64772 | 152.67567 | 28620 ft | 454 kts | 209° |
| 2026-05-05 23:11 | -28.67730 | 152.66236 | 28954 ft | 456 kts | 209° |
| 2026-05-05 23:11 | -28.70689 | 152.64905 | 29282 ft | 458 kts | 209° |
| 2026-05-05 23:11 | -28.73668 | 152.63564 | 29610 ft | 460 kts | 209° |
| 2026-05-05 23:12 | -28.76659 | 152.62217 | 29948 ft | 462 kts | 209° |
| 2026-05-05 23:12 | -28.79607 | 152.60889 | 30361 ft | 461 kts | 209° |
| 2026-05-05 23:12 | -28.82603 | 152.59540 | 30809 ft | 458 kts | 210° |
| 2026-05-05 23:12 | -28.85545 | 152.58181 | 31269 ft | 453 kts | 212° |
| 2026-05-05 23:13 | -28.88374 | 152.56628 | 31661 ft | 448 kts | 215° |
| 2026-05-05 23:13 | -28.91102 | 152.55004 | 32029 ft | 446 kts | 216° |
| 2026-05-05 23:13 | -28.93837 | 152.53331 | 32429 ft | 444 kts | 217° |
| 2026-05-05 23:13 | -28.96551 | 152.51666 | 32837 ft | 442 kts | 217° |
| 2026-05-05 23:14 | -28.99266 | 152.50013 | 33216 ft | 441 kts | 217° |
| 2026-05-05 23:14 | -29.01983 | 152.48372 | 33566 ft | 440 kts | 217° |
| 2026-05-05 23:14 | -29.04692 | 152.46747 | 33945 ft | 439 kts | 217° |
| 2026-05-05 23:14 | -29.07391 | 152.45135 | 34348 ft | 437 kts | 217° |
| 2026-05-05 23:15 | -29.10092 | 152.43525 | 34636 ft | 437 kts | 217° |
| 2026-05-05 23:15 | -29.12749 | 152.41940 | 34907 ft | 436 kts | 217° |
| 2026-05-05 23:15 | -29.15450 | 152.40329 | 35195 ft | 435 kts | 218° |
| 2026-05-05 23:15 | -29.18132 | 152.38728 | 35490 ft | 434 kts | 218° |
| 2026-05-05 23:16 | -29.20813 | 152.37127 | 35801 ft | 433 kts | 218° |
| 2026-05-05 23:16 | -29.23463 | 152.35543 | 36089 ft | 432 kts | 218° |
| 2026-05-05 23:16 | -29.26132 | 152.33945 | 36193 ft | 435 kts | 218° |
| 2026-05-05 23:16 | -29.28835 | 152.32323 | 36231 ft | 437 kts | 218° |
| 2026-05-05 23:17 | -29.34233 | 152.29089 | 36204 ft | 436 kts | 218° |
| 2026-05-05 23:17 | -29.39580 | 152.25888 | 36190 ft | 431 kts | 218° |
| 2026-05-05 23:18 | -29.44891 | 152.22698 | 36184 ft | 430 kts | 218° |
| 2026-05-05 23:18 | -29.49301 | 152.20044 | 36182 ft | 430 kts | 218° |
| 2026-05-05 23:19 | -29.54604 | 152.16851 | 36199 ft | 430 kts | 218° |
| 2026-05-05 23:19 | -29.59883 | 152.13670 | 36194 ft | 430 kts | 218° |
| 2026-05-05 23:20 | -29.65187 | 152.10469 | 36193 ft | 430 kts | 218° |
| 2026-05-05 23:20 | -29.70578 | 152.07429 | 36181 ft | 442 kts | 210° |
| 2026-05-05 23:21 | -29.76671 | 152.05655 | 36209 ft | 455 kts | 202° |
| 2026-05-05 23:21 | -29.82853 | 152.04126 | 36194 ft | 457 kts | 202° |
| 2026-05-05 23:22 | -29.89076 | 152.02546 | 36196 ft | 457 kts | 203° |
| 2026-05-05 23:22 | -29.95290 | 152.00930 | 36197 ft | 457 kts | 203° |
| 2026-05-05 23:23 | -30.01480 | 151.99306 | 36207 ft | 458 kts | 203° |
| 2026-05-05 23:23 | -30.07721 | 151.97668 | 36191 ft | 458 kts | 203° |
| 2026-05-05 23:24 | -30.13910 | 151.96041 | 36189 ft | 459 kts | 203° |
| 2026-05-05 23:24 | -30.20169 | 151.94396 | 36191 ft | 459 kts | 203° |
| 2026-05-05 23:25 | -30.26367 | 151.92765 | 36193 ft | 459 kts | 203° |
| 2026-05-05 23:25 | -30.32592 | 151.91083 | 36191 ft | 454 kts | 206° |
| 2026-05-05 23:26 | -30.38396 | 151.88556 | 36190 ft | 443 kts | 213° |
| 2026-05-05 23:26 | -30.44060 | 151.85814 | 36202 ft | 442 kts | 213° |
| 2026-05-05 23:27 | -30.49771 | 151.83082 | 36205 ft | 443 kts | 212° |
| 2026-05-05 23:27 | -30.55501 | 151.80388 | 36191 ft | 444 kts | 212° |
| 2026-05-05 23:28 | -30.61201 | 151.77724 | 36188 ft | 444 kts | 212° |
| 2026-05-05 23:28 | -30.66949 | 151.75036 | 36191 ft | 444 kts | 212° |
| 2026-05-05 23:29 | -30.72663 | 151.72359 | 36205 ft | 444 kts | 212° |
| 2026-05-05 23:29 | -30.78413 | 151.69660 | 36195 ft | 445 kts | 212° |
| 2026-05-05 23:30 | -30.84125 | 151.66977 | 36197 ft | 445 kts | 212° |
| 2026-05-05 23:30 | -30.89882 | 151.64268 | 36219 ft | 445 kts | 212° |
| 2026-05-05 23:31 | -30.95598 | 151.61574 | 36204 ft | 445 kts | 212° |
| 2026-05-05 23:31 | -31.01358 | 151.58857 | 36199 ft | 446 kts | 212° |
| 2026-05-05 23:32 | -31.07123 | 151.56134 | 36191 ft | 446 kts | 212° |
| 2026-05-05 23:32 | -31.12856 | 151.53423 | 36223 ft | 446 kts | 212° |
| 2026-05-05 23:33 | -31.18624 | 151.50690 | 36207 ft | 447 kts | 211° |
| 2026-05-05 23:33 | -31.24377 | 151.47962 | 36203 ft | 447 kts | 211° |
| 2026-05-05 23:34 | -31.30150 | 151.45221 | 36182 ft | 447 kts | 211° |
| 2026-05-05 23:34 | -31.35880 | 151.42496 | 36199 ft | 448 kts | 211° |
| 2026-05-05 23:35 | -31.41683 | 151.39778 | 36207 ft | 449 kts | 210° |
| 2026-05-05 23:35 | -31.47546 | 151.37180 | 36194 ft | 450 kts | 210° |
| 2026-05-05 23:36 | -31.53417 | 151.34590 | 36191 ft | 450 kts | 210° |
| 2026-05-05 23:36 | -31.59239 | 151.31999 | 36195 ft | 450 kts | 210° |
| 2026-05-05 23:37 | -31.65101 | 151.29376 | 36186 ft | 450 kts | 210° |
| 2026-05-05 23:37 | -31.70963 | 151.26749 | 36184 ft | 450 kts | 210° |
| 2026-05-05 23:38 | -31.76786 | 151.24137 | 36193 ft | 449 kts | 210° |
| 2026-05-05 23:38 | -31.82635 | 151.21508 | 36195 ft | 450 kts | 209° |
| 2026-05-05 23:39 | -31.88459 | 151.18887 | 36017 ft | 453 kts | 209° |
| 2026-05-05 23:39 | -31.91432 | 151.17545 | 35451 ft | 456 kts | 209° |
| 2026-05-05 23:39 | -31.94387 | 151.16216 | 34873 ft | 455 kts | 208° |
| 2026-05-05 23:40 | -31.97351 | 151.14886 | 34278 ft | 455 kts | 208° |
| 2026-05-05 23:40 | -32.00277 | 151.13576 | 33794 ft | 452 kts | 208° |
| 2026-05-05 23:40 | -32.03207 | 151.12266 | 33263 ft | 449 kts | 208° |
| 2026-05-05 23:40 | -32.06125 | 151.10961 | 32803 ft | 444 kts | 207° |
| 2026-05-05 23:41 | -32.08976 | 151.09683 | 32344 ft | 440 kts | 207° |
| 2026-05-05 23:41 | -32.11834 | 151.08401 | 31911 ft | 436 kts | 207° |
| 2026-05-05 23:41 | -32.14668 | 151.07127 | 31479 ft | 432 kts | 207° |
| 2026-05-05 23:41 | -32.17464 | 151.05868 | 31055 ft | 428 kts | 207° |
| 2026-05-05 23:42 | -32.20245 | 151.04614 | 30630 ft | 425 kts | 207° |
| 2026-05-05 23:42 | -32.22974 | 151.03384 | 30218 ft | 422 kts | 207° |
| 2026-05-05 23:42 | -32.25720 | 151.02145 | 29714 ft | 419 kts | 207° |
| 2026-05-05 23:42 | -32.28405 | 151.00933 | 29249 ft | 415 kts | 207° |
| 2026-05-05 23:43 | -32.31090 | 150.99721 | 28820 ft | 410 kts | 207° |
| 2026-05-05 23:43 | -32.33749 | 150.98519 | 28385 ft | 406 kts | 206° |
| 2026-05-05 23:43 | -32.36388 | 150.97325 | 27944 ft | 403 kts | 206° |
| 2026-05-05 23:43 | -32.38993 | 150.96146 | 27523 ft | 399 kts | 206° |
| 2026-05-05 23:44 | -32.41546 | 150.94989 | 27100 ft | 396 kts | 206° |
| 2026-05-05 23:44 | -32.44113 | 150.93827 | 26683 ft | 393 kts | 206° |
| 2026-05-05 23:44 | -32.46668 | 150.92674 | 26261 ft | 390 kts | 204° |
| 2026-05-05 23:44 | -32.49311 | 150.91866 | 25837 ft | 394 kts | 193° |
| 2026-05-05 23:45 | -32.52021 | 150.91634 | 25449 ft | 396 kts | 183° |
| 2026-05-05 23:45 | -32.54779 | 150.91944 | 25052 ft | 397 kts | 175° |
| 2026-05-05 23:45 | -32.57519 | 150.92453 | 24623 ft | 396 kts | 174° |
| 2026-05-05 23:45 | -32.60235 | 150.92986 | 24212 ft | 395 kts | 174° |
| 2026-05-05 23:46 | -32.62946 | 150.93511 | 23793 ft | 393 kts | 174° |
| 2026-05-05 23:46 | -32.65619 | 150.94013 | 23328 ft | 391 kts | 174° |
| 2026-05-05 23:46 | -32.68306 | 150.94507 | 22893 ft | 388 kts | 174° |
| 2026-05-05 23:46 | -32.70978 | 150.94990 | 22467 ft | 385 kts | 174° |
| 2026-05-05 23:47 | -32.73617 | 150.95466 | 22067 ft | 382 kts | 174° |
| 2026-05-05 23:47 | -32.76206 | 150.95932 | 21665 ft | 379 kts | 174° |
| 2026-05-05 23:47 | -32.78804 | 150.96401 | 21269 ft | 376 kts | 174° |
| 2026-05-05 23:47 | -32.81387 | 150.96863 | 20883 ft | 373 kts | 174° |
| 2026-05-05 23:48 | -32.83950 | 150.97317 | 20501 ft | 370 kts | 174° |
| 2026-05-05 23:48 | -32.86490 | 150.97767 | 20107 ft | 368 kts | 174° |
| 2026-05-05 23:48 | -32.89014 | 150.98214 | 19724 ft | 365 kts | 173° |
| 2026-05-05 23:48 | -32.91495 | 150.98654 | 19353 ft | 363 kts | 174° |
| 2026-05-05 23:49 | -32.93994 | 150.99098 | 18967 ft | 361 kts | 174° |
| 2026-05-05 23:49 | -32.96487 | 150.99541 | 18592 ft | 360 kts | 174° |
| 2026-05-05 23:49 | -32.98959 | 150.99981 | 18164 ft | 358 kts | 173° |
| 2026-05-05 23:49 | -33.01423 | 151.00420 | 17744 ft | 356 kts | 173° |
| 2026-05-05 23:50 | -33.03862 | 151.00855 | 17345 ft | 354 kts | 173° |
| 2026-05-05 23:50 | -33.06293 | 151.01288 | 16963 ft | 351 kts | 173° |
| 2026-05-05 23:50 | -33.08701 | 151.01718 | 16587 ft | 349 kts | 173° |
| 2026-05-05 23:50 | -33.11066 | 151.02140 | 16217 ft | 346 kts | 173° |
| 2026-05-05 23:51 | -33.13442 | 151.02565 | 15848 ft | 344 kts | 173° |
| 2026-05-05 23:51 | -33.15808 | 151.02988 | 15487 ft | 342 kts | 173° |
| 2026-05-05 23:51 | -33.18161 | 151.03408 | 15114 ft | 340 kts | 173° |
| 2026-05-05 23:51 | -33.20502 | 151.03827 | 14753 ft | 339 kts | 173° |
| 2026-05-05 23:52 | -33.22805 | 151.04239 | 14396 ft | 337 kts | 173° |
| 2026-05-05 23:52 | -33.25124 | 151.04663 | 14088 ft | 334 kts | 172° |
| 2026-05-05 23:52 | -33.27416 | 151.05101 | 13735 ft | 332 kts | 172° |
| 2026-05-05 23:52 | -33.29691 | 151.05540 | 13362 ft | 330 kts | 172° |
| 2026-05-05 23:53 | -33.31963 | 151.05978 | 12994 ft | 328 kts | 172° |
| 2026-05-05 23:53 | -33.34193 | 151.06405 | 12636 ft | 327 kts | 172° |
| 2026-05-05 23:53 | -33.36437 | 151.06835 | 12271 ft | 325 kts | 172° |
| 2026-05-05 23:53 | -33.38674 | 151.07264 | 11893 ft | 324 kts | 172° |
| 2026-05-05 23:54 | -33.40904 | 151.07691 | 11533 ft | 323 kts | 172° |
| 2026-05-05 23:54 | -33.43101 | 151.08113 | 11175 ft | 322 kts | 172° |
| 2026-05-05 23:54 | -33.45317 | 151.08539 | 10816 ft | 321 kts | 172° |
| 2026-05-05 23:54 | -33.47516 | 151.08962 | 10544 ft | 317 kts | 172° |
| 2026-05-05 23:55 | -33.49656 | 151.09374 | 10482 ft | 305 kts | 172° |
| 2026-05-05 23:55 | -33.51722 | 151.09772 | 10361 ft | 297 kts | 172° |
| 2026-05-05 23:55 | -33.53753 | 151.10163 | 10110 ft | 294 kts | 172° |
| 2026-05-05 23:55 | -33.55757 | 151.10548 | 9773 ft | 294 kts | 172° |
| 2026-05-05 23:56 | -33.57780 | 151.10937 | 9453 ft | 293 kts | 172° |
| 2026-05-05 23:56 | -33.59802 | 151.11327 | 9126 ft | 293 kts | 172° |
| 2026-05-05 23:56 | -33.61816 | 151.11716 | 8796 ft | 292 kts | 171° |
| 2026-05-05 23:56 | -33.63822 | 151.12111 | 8484 ft | 291 kts | 171° |
| 2026-05-05 23:57 | -33.65821 | 151.12506 | 8169 ft | 291 kts | 171° |
| 2026-05-05 23:57 | -33.67803 | 151.12898 | 7835 ft | 292 kts | 170° |
| 2026-05-05 23:57 | -33.69778 | 151.13431 | 7551 ft | 288 kts | 155° |
| 2026-05-05 23:57 | -33.71395 | 151.14792 | 7274 ft | 284 kts | 134° |
| 2026-05-05 23:58 | -33.72774 | 151.16479 | 6991 ft | 282 kts | 131° |
| 2026-05-05 23:58 | -33.74119 | 151.18189 | 6711 ft | 281 kts | 131° |
| 2026-05-05 23:58 | -33.75443 | 151.19870 | 6439 ft | 278 kts | 131° |
| 2026-05-05 23:58 | -33.76783 | 151.21556 | 6144 ft | 277 kts | 131° |
| 2026-05-05 23:59 | -33.78122 | 151.23230 | 6044 ft | 276 kts | 131° |
| 2026-05-05 23:59 | -33.79455 | 151.24890 | 6010 ft | 274 kts | 132° |
| 2026-05-05 23:59 | -33.80760 | 151.26513 | 6004 ft | 272 kts | 131° |
| 2026-05-05 23:59 | -33.82090 | 151.28148 | 5997 ft | 273 kts | 135° |
| 2026-05-06 00:00 | -33.83751 | 151.29279 | 6010 ft | 281 kts | 163° |
| 2026-05-06 00:00 | -33.85674 | 151.29793 | 6009 ft | 284 kts | 167° |
| 2026-05-06 00:00 | -33.87606 | 151.30273 | 5996 ft | 282 kts | 167° |
| 2026-05-06 00:00 | -33.89527 | 151.30756 | 5990 ft | 281 kts | 166° |
| 2026-05-06 00:01 | -33.91413 | 151.31240 | 5994 ft | 281 kts | 166° |
| 2026-05-06 00:01 | -33.93318 | 151.31735 | 6005 ft | 279 kts | 166° |
| 2026-05-06 00:01 | -33.95224 | 151.32232 | 6004 ft | 279 kts | 166° |
| 2026-05-06 00:01 | -33.97116 | 151.32727 | 5945 ft | 277 kts | 166° |
| 2026-05-06 00:02 | -33.98993 | 151.33217 | 5717 ft | 275 kts | 166° |
| 2026-05-06 00:02 | -34.00872 | 151.33709 | 5392 ft | 275 kts | 166° |
| 2026-05-06 00:02 | -34.02714 | 151.34192 | 5134 ft | 273 kts | 167° |
| 2026-05-06 00:02 | -34.04590 | 151.34683 | 4863 ft | 271 kts | 166° |
| 2026-05-06 00:03 | -34.06412 | 151.35161 | 4584 ft | 270 kts | 166° |
| 2026-05-06 00:03 | -34.08250 | 151.35643 | 4319 ft | 268 kts | 167° |
| 2026-05-06 00:03 | -34.10065 | 151.36109 | 4101 ft | 264 kts | 170° |
| 2026-05-06 00:03 | -34.11845 | 151.35989 | 3972 ft | 258 kts | 198° |
| 2026-05-06 00:04 | -34.13334 | 151.34853 | 3836 ft | 252 kts | 228° |
| 2026-05-06 00:04 | -34.14149 | 151.33026 | 3716 ft | 245 kts | 254° |
| 2026-05-06 00:04 | -34.14565 | 151.31062 | 3592 ft | 238 kts | 257° |
| 2026-05-06 00:04 | -34.14925 | 151.29172 | 3502 ft | 227 kts | 258° |
| 2026-05-06 00:05 | -34.14733 | 151.25616 | 3231 ft | 214 kts | 291° |
| 2026-05-06 00:05 | -34.14001 | 151.24076 | 3066 ft | 210 kts | 321° |
| 2026-05-06 00:05 | -34.12724 | 151.23449 | 3030 ft | 194 kts | 354° |
| 2026-05-06 00:06 | -34.11372 | 151.23145 | 2872 ft | 200 kts | 348° |
| 2026-05-06 00:06 | -34.10031 | 151.22766 | 2611 ft | 199 kts | 349° |
| 2026-05-06 00:06 | -34.08688 | 151.22407 | 2345 ft | 196 kts | 349° |
| 2026-05-06 00:06 | -34.07363 | 151.22061 | 2078 ft | 193 kts | 349° |
| 2026-05-06 00:07 | -34.06066 | 151.21723 | 1824 ft | 186 kts | 348° |
| 2026-05-06 00:07 | -34.04840 | 151.21404 | 1604 ft | 173 kts | 348° |
| 2026-05-06 00:07 | -34.03713 | 151.21110 | 1353 ft | 161 kts | 347° |
| 2026-05-06 00:07 | -34.02626 | 151.20826 | 1144 ft | 160 kts | 347° |
| 2026-05-06 00:08 | -34.01902 | 151.20637 | 1018 ft | 161 kts | 347° |
| 2026-05-06 00:08 | -34.00803 | 151.20357 | 787 ft | 161 kts | 347° |
| 2026-05-06 00:08 | -33.99727 | 151.20077 | 588 ft | 154 kts | 344° |
| 2026-05-06 00:08 | -33.98700 | 151.19802 | 369 ft | 150 kts | 346° |
| 2026-05-06 00:09 | -33.97694 | 151.19537 | 186 ft | 147 kts | 346° |
| 2026-05-06 00:09 | -33.96701 | 151.19279 | 28 ft | 143 kts | 346° |
| 2026-05-06 00:09 | -33.95706 | 151.19021 | 26 ft | 70 kts | 348° |
| 2026-05-06 00:09 | -33.95491 | 151.18962 | 26 ft | 35 kts | 343° |
| 2026-05-06 00:10 | -33.95281 | 151.18837 | 28 ft | 32 kts | 323° |
| 2026-05-06 00:10 | -33.95170 | 151.18720 | 28 ft | 17 kts | 318° |
| 2026-05-06 00:10 | -33.95096 | 151.18630 | 29 ft | 13 kts | 300° |
| 2026-05-06 00:10 | -33.95098 | 151.18526 | 29 ft | 13 kts | 258° |
| 2026-05-06 00:11 | -33.95116 | 151.18424 | 29 ft | 12 kts | 258° |
| 2026-05-06 00:11 | -33.95135 | 151.18318 | 29 ft | 14 kts | 258° |
| 2026-05-06 00:11 | -33.95156 | 151.18199 | 29 ft | 16 kts | 257° |
| 2026-05-06 00:11 | -33.95169 | 151.18087 | 29 ft | 12 kts | 282° |
| 2026-05-06 00:12 | -33.95101 | 151.18032 | 29 ft | 14 kts | 347° |
| 2026-05-06 00:12 | -33.94987 | 151.18002 | 29 ft | 20 kts | 348° |
| 2026-05-06 00:12 | -33.94841 | 151.17964 | 29 ft | 21 kts | 348° |
| 2026-05-06 00:12 | -33.94699 | 151.17927 | 29 ft | 20 kts | 347° |
| 2026-05-06 00:13 | -33.94631 | 151.17909 | 29 ft | 6 kts | 348° |
| 2026-05-06 00:13 | -33.94585 | 151.17897 | 29 ft | 8 kts | 347° |
| 2026-05-06 00:13 | -33.94525 | 151.17881 | 29 ft | 11 kts | 351° |
| 2026-05-06 00:13 | -33.94435 | 151.17911 | 29 ft | 15 kts | 8° |
| 2026-05-06 00:14 | -33.94338 | 151.17892 | 29 ft | 14 kts | 348° |
| 2026-05-06 00:14 | -33.94243 | 151.17867 | 29 ft | 14 kts | 347° |
| 2026-05-06 00:14 | -33.94153 | 151.17844 | 29 ft | 13 kts | 348° |
| 2026-05-06 00:14 | -33.94056 | 151.17818 | 28 ft | 16 kts | 347° |
| 2026-05-06 00:15 | -33.93949 | 151.17792 | 28 ft | 16 kts | 348° |
| 2026-05-06 00:15 | -33.93846 | 151.17764 | 29 ft | 15 kts | 348° |
| 2026-05-06 00:15 | -33.93750 | 151.17780 | 29 ft | 12 kts | 14° |
| 2026-05-06 00:15 | -33.93670 | 151.17805 | 29 ft | 12 kts | 14° |
| 2026-05-06 00:16 | -33.93591 | 151.17824 | 29 ft | 11 kts | 9° |
| 2026-05-06 00:16 | -33.93523 | 151.17838 | 29 ft | 7 kts | 10° |
| 2026-05-06 00:16 | -33.93483 | 151.17847 | 29 ft | 5 kts | 10° |
| 2026-05-06 00:16 | -33.93468 | 151.17860 | 29 ft | 3 kts | 60° |
| 2026-05-06 00:17 | -33.93468 | 151.17888 | 29 ft | 4 kts | 100° |
| 2026-05-06 00:17 | -33.93472 | 151.17914 | 29 ft | 2 kts | 99° |
| 2026-05-06 00:17 | -33.93473 | 151.17920 | 29 ft | 0 kts | 99° |